Map

Track Data

SID SEASON NUMBER BASIN SUBBASIN NAME ISO_TIME NATURE LAT LON WMO_WIND WMO_PRES WMO_AGENCY TRACK_TYPE DIST2LAND LANDFALL IFLAG USA_AGENCY USA_ATCF_ID USA_LAT USA_LON USA_RECORD USA_STATUS USA_WIND USA_PRES USA_SSHS USA_R34_NE USA_R34_SE USA_R34_SW USA_R34_NW USA_R50_NE USA_R50_SE USA_R50_SW USA_R50_NW USA_R64_NE USA_R64_SE USA_R64_SW USA_R64_NW USA_POCI USA_ROCI USA_RMW USA_EYE TOKYO_LAT TOKYO_LON TOKYO_GRADE TOKYO_WIND TOKYO_PRES TOKYO_R50_DIR TOKYO_R50_LONG TOKYO_R50_SHORT TOKYO_R30_DIR TOKYO_R30_LONG TOKYO_R30_SHORT TOKYO_LAND CMA_LAT CMA_LON CMA_CAT CMA_WIND CMA_PRES HKO_LAT HKO_LON HKO_CAT HKO_WIND HKO_PRES NEWDELHI_LAT NEWDELHI_LON NEWDELHI_GRADE NEWDELHI_WIND NEWDELHI_PRES NEWDELHI_CI NEWDELHI_DP NEWDELHI_POCI REUNION_LAT REUNION_LON REUNION_TYPE REUNION_WIND REUNION_PRES REUNION_TNUM REUNION_CI REUNION_RMW REUNION_R34_NE REUNION_R34_SE REUNION_R34_SW REUNION_R34_NW REUNION_R50_NE REUNION_R50_SE REUNION_R50_SW REUNION_R50_NW REUNION_R64_NE REUNION_R64_SE REUNION_R64_SW REUNION_R64_NW BOM_LAT BOM_LON BOM_TYPE BOM_WIND BOM_PRES BOM_TNUM BOM_CI BOM_RMW BOM_R34_NE BOM_R34_SE BOM_R34_SW BOM_R34_NW BOM_R50_NE BOM_R50_SE BOM_R50_SW BOM_R50_NW BOM_R64_NE BOM_R64_SE BOM_R64_SW BOM_R64_NW BOM_ROCI BOM_POCI BOM_EYE BOM_POS_METHOD BOM_PRES_METHOD NADI_LAT NADI_LON NADI_CAT NADI_WIND NADI_PRES WELLINGTON_LAT WELLINGTON_LON WELLINGTON_WIND WELLINGTON_PRES DS824_LAT DS824_LON DS824_STAGE DS824_WIND DS824_PRES TD9636_LAT TD9636_LON TD9636_STAGE TD9636_WIND TD9636_PRES TD9635_LAT TD9635_LON TD9635_WIND TD9635_PRES TD9635_ROCI NEUMANN_LAT NEUMANN_LON NEUMANN_CLASS NEUMANN_WIND NEUMANN_PRES MLC_LAT MLC_LON MLC_CLASS MLC_WIND MLC_PRES USA_GUST BOM_GUST BOM_GUST_PER REUNION_GUST REUNION_GUST_PER USA_SEAHGT USA_SEARAD_NE USA_SEARAD_SE USA_SEARAD_SW USA_SEARAD_NW STORM_SPEED STORM_DIR
1916262N13315 1916 49 NA NA NOT_NAMED 1916-09-17 12:00:00 TS 13.0000 -45.5000 35 hurdat_atl main 1164 1145 O_____________ hurdat_atl AL111916 13.0000 -45.5000 TS 35 0 13 292
1916262N13315 1916 49 NA NA NOT_NAMED 1916-09-17 15:00:00 TS 13.2504 -46.1222 main 1154 1130 P_____________ AL111916 13.2504 -46.1222 TS 35 0 13 293
1916262N13315 1916 49 NA NA NOT_NAMED 1916-09-17 18:00:00 TS 13.5000 -46.7000 35 hurdat_atl main 1132 1121 O_____________ hurdat_atl AL111916 13.5000 -46.7000 TS 35 0 12 295
1916262N13315 1916 49 NA NA NOT_NAMED 1916-09-17 21:00:00 TS 13.7498 -47.2077 main 1121 1118 P_____________ AL111916 13.7498 -47.2077 TS 37 0 11 297
1916262N13315 1916 49 NA NA NOT_NAMED 1916-09-18 00:00:00 TS 14.0000 -47.7000 40 hurdat_atl main 1122 1117 O_____________ hurdat_atl AL111916 14.0000 -47.7000 TS 40 0 11 297
1916262N13315 1916 49 NA NA NOT_NAMED 1916-09-18 03:00:00 TS 14.2499 -48.2351 main 1117 1112 P_____________ AL111916 14.2499 -48.2351 TS 42 0 12 295
1916262N13315 1916 49 NA NA NOT_NAMED 1916-09-18 06:00:00 TS 14.5000 -48.8000 45 hurdat_atl main 1119 1115 O_____________ hurdat_atl AL111916 14.5000 -48.8000 TS 45 0 12 294
1916262N13315 1916 49 NA NA NOT_NAMED 1916-09-18 09:00:00 TS 14.7498 -49.3851 main 1116 1112 P_____________ AL111916 14.7498 -49.3851 TS 47 0 13 293
1916262N13315 1916 49 NA NA NOT_NAMED 1916-09-18 12:00:00 TS 15.0000 -50.0000 50 hurdat_atl main 1117 1110 O_____________ hurdat_atl AL111916 15.0000 -50.0000 TS 50 0 13 292
1916262N13315 1916 49 NA NA NOT_NAMED 1916-09-18 15:00:00 TS 15.2424 -50.6502 main 1109 1109 P_____________ AL111916 15.2424 -50.6502 TS 50 0 14 292
1916262N13315 1916 49 NA NA NOT_NAMED 1916-09-18 18:00:00 TS 15.5000 -51.3000 50 hurdat_atl main 1120 1117 O_____________ hurdat_atl AL111916 15.5000 -51.3000 TS 50 0 13 294
1916262N13315 1916 49 NA NA NOT_NAMED 1916-09-18 21:00:00 TS 15.7847 -51.9002 main 1136 1100 P_____________ AL111916 15.7847 -51.9002 TS 52 0 13 297
1916262N13315 1916 49 NA NA NOT_NAMED 1916-09-19 00:00:00 TS 16.1000 -52.5000 55 hurdat_atl main 1100 1066 O_____________ hurdat_atl AL111916 16.1000 -52.5000 TS 55 0 14 299
1916262N13315 1916 49 NA NA NOT_NAMED 1916-09-19 03:00:00 TS 16.4424 -53.1501 main 1057 1034 P_____________ AL111916 16.4424 -53.1501 TS 55 0 14 299
1916262N13315 1916 49 NA NA NOT_NAMED 1916-09-19 06:00:00 TS 16.8000 -53.8000 55 hurdat_atl main 1034 1010 O_____________ hurdat_atl AL111916 16.8000 -53.8000 TS 55 0 14 301
1916262N13315 1916 49 NA NA NOT_NAMED 1916-09-19 09:00:00 TS 17.1572 -54.4002 main 1018 997 P_____________ AL111916 17.1572 -54.4002 TS 57 0 13 301
1916262N13315 1916 49 NA NA NOT_NAMED 1916-09-19 12:00:00 TS 17.5000 -55.0000 60 hurdat_atl main 999 982 O_____________ hurdat_atl AL111916 17.5000 -55.0000 TS 60 0 13 299
1916262N13315 1916 49 NA NA NOT_NAMED 1916-09-19 15:00:00 TS 17.8073 -55.6353 main 985 970 P_____________ AL111916 17.8073 -55.6353 TS 62 0 14 296
1916262N13315 1916 49 NA NA NOT_NAMED 1916-09-19 18:00:00 TS 18.1000 -56.3000 65 hurdat_atl main 970 917 O_____________ hurdat_atl AL111916 18.1000 -56.3000 HU 65 1 14 295
1916262N13315 1916 49 NA NA NOT_NAMED 1916-09-19 21:00:00 TS 18.3997 -56.9853 main 907 833 P_____________ AL111916 18.3997 -56.9853 HU 67 1 15 294
1916262N13315 1916 49 NA NA NOT_NAMED 1916-09-20 00:00:00 TS 18.7000 -57.7000 70 hurdat_atl main 833 761 O_____________ hurdat_atl AL111916 18.7000 -57.7000 HU 70 1 15 293
1916262N13315 1916 49 NA NA NOT_NAMED 1916-09-20 03:00:00 TS 18.9923 -58.4428 main 761 680 P_____________ AL111916 18.9923 -58.4428 HU 72 1 15 293
1916262N13315 1916 49 NA NA NOT_NAMED 1916-09-20 06:00:00 TS 19.3000 -59.2000 75 hurdat_atl main 680 614 O_____________ hurdat_atl AL111916 19.3000 -59.2000 HU 75 1 16 294
1916262N13315 1916 49 NA NA NOT_NAMED 1916-09-20 09:00:00 TS 19.6423 -59.9577 main 603 544 P_____________ AL111916 19.6423 -59.9577 HU 77 1 16 296
1916262N13315 1916 49 NA NA NOT_NAMED 1916-09-20 12:00:00 TS 20.0000 -60.7000 80 hurdat_atl main 544 489 O_____________ hurdat_atl AL111916 20.0000 -60.7000 HU 80 1 15 298
1916262N13315 1916 49 NA NA NOT_NAMED 1916-09-20 15:00:00 TS 20.3572 -61.4152 main 494 447 P_____________ AL111916 20.3572 -61.4152 HU 80 1 15 298
1916262N13315 1916 49 NA NA NOT_NAMED 1916-09-20 18:00:00 TS 20.7000 -62.1000 80 hurdat_atl main 447 420 O_____________ hurdat_atl AL111916 20.7000 -62.1000 HU 80 1 14 297
1916262N13315 1916 49 NA NA NOT_NAMED 1916-09-20 21:00:00 TS 21.0072 -62.7653 main 412 394 P_____________ AL111916 21.0072 -62.7653 HU 82 1 14 296
1916262N13315 1916 49 NA NA NOT_NAMED 1916-09-21 00:00:00 TS 21.3000 -63.4000 85 hurdat_atl main 397 389 O_____________ hurdat_atl AL111916 21.3000 -63.4000 HU 85 2 13 297
1916262N13315 1916 49 NA NA NOT_NAMED 1916-09-21 03:00:00 TS 21.5999 -64.0301 main 395 390 P_____________ AL111916 21.5999 -64.0301 HU 85 2 13 298
1916262N13315 1916 49 NA NA NOT_NAMED 1916-09-21 06:00:00 TS 21.9000 -64.6000 85 hurdat_atl main 405 402 O_____________ hurdat_atl AL111916 21.9000 -64.6000 HU 85 2 11 301
1916262N13315 1916 49 NA NA NOT_NAMED 1916-09-21 09:00:00 TS 22.1923 -65.0878 main 428 427 P_____________ AL111916 22.1923 -65.0878 HU 87 2 10 306
1916262N13315 1916 49 NA NA NOT_NAMED 1916-09-21 12:00:00 TS 22.5000 -65.5000 90 hurdat_atl main 458 458 O_____________ hurdat_atl AL111916 22.5000 -65.5000 HU 90 2 10 311
1916262N13315 1916 49 NA NA NOT_NAMED 1916-09-21 15:00:00 TS 22.8349 -65.8801 main 492 492 P_____________ AL111916 22.8349 -65.8801 HU 90 2 10 317
1916262N13315 1916 49 NA NA NOT_NAMED 1916-09-21 18:00:00 TS 23.2000 -66.2000 90 hurdat_atl main 536 536 O_____________ hurdat_atl AL111916 23.2000 -66.2000 HU 90 2 9 324
1916262N13315 1916 49 NA NA NOT_NAMED 1916-09-21 21:00:00 TS 23.5849 -66.4727 main 561 561 P_____________ AL111916 23.5849 -66.4727 HU 92 2 9 330
1916262N13315 1916 49 NA NA NOT_NAMED 1916-09-22 00:00:00 TS 24.0000 -66.7000 95 hurdat_atl main 590 590 O_____________ hurdat_atl AL111916 24.0000 -66.7000 HU 95 2 9 335
1916262N13315 1916 49 NA NA NOT_NAMED 1916-09-22 03:00:00 TS 24.4424 -66.9077 main 621 621 P_____________ AL111916 24.4424 -66.9077 HU 97 3 10 338
1916262N13315 1916 49 NA NA NOT_NAMED 1916-09-22 06:00:00 TS 24.9000 -67.1000 100 hurdat_atl main 663 663 O_____________ hurdat_atl AL111916 24.9000 -67.1000 HU 100 3 10 338
1916262N13315 1916 49 NA NA NOT_NAMED 1916-09-22 09:00:00 TS 25.3425 -67.3150 main 694 694 P_____________ AL111916 25.3425 -67.3150 HU 102 3 10 338
1916262N13315 1916 49 NA NA NOT_NAMED 1916-09-22 12:00:00 TS 25.8000 -67.5000 105 hurdat_atl main 738 738 O_____________ hurdat_atl AL111916 25.8000 -67.5000 HU 105 3 10 344
1916262N13315 1916 49 NA NA NOT_NAMED 1916-09-22 15:00:00 TS 26.2850 -67.6227 main 788 788 P_____________ AL111916 26.2850 -67.6227 HU 105 3 10 350
1916262N13315 1916 49 NA NA NOT_NAMED 1916-09-22 18:00:00 TS 26.8000 -67.7000 105 hurdat_atl main 825 825 O_____________ hurdat_atl AL111916 26.8000 -67.7000 HU 105 3 11 353
1916262N13315 1916 49 NA NA NOT_NAMED 1916-09-22 21:00:00 TS 27.3350 -67.7650 main 861 861 P_____________ AL111916 27.3350 -67.7650 HU 105 3 11 355
1916262N13315 1916 49 NA NA NOT_NAMED 1916-09-23 00:00:00 TS 27.9000 -67.8000 105 hurdat_atl main 914 914 O_____________ hurdat_atl AL111916 27.9000 -67.8000 HU 105 3 11 357
1916262N13315 1916 49 NA NA NOT_NAMED 1916-09-23 03:00:00 TS 28.4775 -67.8297 main 969 969 P_____________ AL111916 28.4775 -67.8297 HU 105 3 12 1
1916262N13315 1916 49 NA NA NOT_NAMED 1916-09-23 06:00:00 TS 29.1000 -67.8000 105 hurdat_atl main 1025 993 O_____________ hurdat_atl AL111916 29.1000 -67.8000 HU 105 3 13 6
1916262N13315 1916 49 NA NA NOT_NAMED 1916-09-23 09:00:00 TS 29.7775 -67.6874 main 986 949 P_____________ AL111916 29.7775 -67.6874 HU 105 3 14 10
1916262N13315 1916 49 NA NA NOT_NAMED 1916-09-23 12:00:00 TS 30.5000 -67.5000 105 hurdat_atl main 949 907 O_____________ hurdat_atl AL111916 30.5000 -67.5000 HU 105 3 15 12
1916262N13315 1916 49 NA NA NOT_NAMED 1916-09-23 15:00:00 TS 31.2268 -67.3378 main 915 887 P_____________ AL111916 31.2268 -67.3378 HU 105 3 16 16
1916262N13315 1916 49 NA NA NOT_NAMED 1916-09-23 18:00:00 TS 32.0000 -67.0000 105 hurdat_atl main 889 886 O_____________ hurdat_atl AL111916 32.0000 -67.0000 HU 105 3 18 28
1916262N13315 1916 49 NA NA NOT_NAMED 1916-09-23 21:00:00 TS 32.8278 -66.3401 main 906 902 P_____________ AL111916 32.8278 -66.3401 HU 102 3 21 37
1916262N13315 1916 49 NA NA NOT_NAMED 1916-09-24 00:00:00 TS 33.7000 -65.5000 100 hurdat_atl main 940 920 O_____________ hurdat_atl AL111916 33.7000 -65.5000 HU 100 3 22 38
1916262N13315 1916 49 NA NA NOT_NAMED 1916-09-24 03:00:00 TS 34.5766 -64.6922 main 915 878 P_____________ AL111916 34.5766 -64.6922 HU 97 3 23 38
1916262N13315 1916 49 NA NA NOT_NAMED 1916-09-24 06:00:00 TS 35.5000 -63.8000 95 hurdat_atl main 874 815 O_____________ hurdat_atl AL111916 35.5000 -63.8000 HU 95 2 25 39
1916262N13315 1916 49 NA NA NOT_NAMED 1916-09-24 09:00:00 TS 36.4847 -62.7861 main 807 740 P_____________ AL111916 36.4847 -62.7861 HU 90 2 26 40
1916262N13315 1916 49 NA NA NOT_NAMED 1916-09-24 12:00:00 TS 37.5000 -61.7000 85 hurdat_atl main 733 685 O_____________ hurdat_atl AL111916 37.5000 -61.7000 HU 85 2 26 41
1916262N13315 1916 49 NA NA NOT_NAMED 1916-09-24 15:00:00 TS 38.4611 -60.6242 main 680 645 P_____________ AL111916 38.4611 -60.6242 HU 80 1 26 41
1916262N13315 1916 49 NA NA NOT_NAMED 1916-09-24 18:00:00 TS 39.5000 -59.5000 75 hurdat_atl main 638 556 O_____________ hurdat_atl AL111916 39.5000 -59.5000 HU 75 1 29 39
1916262N13315 1916 49 NA NA NOT_NAMED 1916-09-24 21:00:00 TS 40.7031 -58.2897 main 549 487 P_____________ AL111916 40.7031 -58.2897 HU 67 1 31 37
1916262N13315 1916 49 NA NA NOT_NAMED 1916-09-25 00:00:00 ET 42.0000 -57.0000 60 hurdat_atl main 483 O_____________ hurdat_atl AL111916 42.0000 -57.0000 EX 60 -4 32 36

About IBTrACS Database

This database is a web-friendly format of International Best Track Archive for Climate Stewardship (IBTrACS), a global best track data archive curated by NOAA dating back to 1842.

Updated: 2021-11-26